Portada
METAR-TAF:

METAR-TAF

Aeropuertos :

Boscobel Airport

Boscobel, Wisconsin, Estados Unidos

latitud: 43-09-22N, longitud: 090-40-39W, altitud: 205 m

Observación

El informe se hizo hace 1 hora y 8 minutos, a las 03:53 UTC
Viento calma
Temperatura 4°C
Humedad 81%
Presión 1024 hPa
Visibilidad: 16.1 km
Cielo nuboso a una altura de 9000 ft

METAR: KOVS 110353Z AUTO 00000KT 10SM BKN090 04/01 A3025 RMK AO2 SLP250 T00440011

Hora: 00:01 (05:01 UTC)


TAF: falta

Observaciones y pronósticos meteorológicos de más de 4000 aeropuertos (mensajes METAR y TAF).

Los puntos amarillos y rojos representan las estaciones disponibles.

Ponga el ratón en el punto deseado para ver el nombre de la estación.

Haga clic para ver las observaciones y los pronósticos meteorológicos.

Para cambiar el mapa : haga clic en los botones verdes con una cruz de color negro para hacer un zoom, en el botón verde con un guión para alejar o en las flechas verdes para mapas adyacentes.


METAR-TAF: